Jonesboro, Texas
Current Conditions -  °F | °C
As of 9:55 AM on Sunday 21 Dec 2014 (Local Time) from KGOP Reporting Station
Broken Clouds Broken Clouds  
Wind Chill: 45°   Ceiling: 2100
Heat Index: 48°   Visibility: 7mi
Dew Point: 46°   Wind: 7mph
Humidity: 93%   Direction: 150°SSE
Pressure: 30.11"   Gusts: NA
Location:  31.61°N, 97.88°W
Report Text: KGOP 211555Z AUTO 15006KT 7SM SCT008 BKN021 09/08 A3011 RMK AO2 PWINO
Loading
Personal Weather Stations






























Interactive Weather Map New forecast layout! Learn more

10-Day Weather Forecast

Advertisements
Track Severe Weather on mobile